Time;durP1;ratioP1;P1;durP2;ratioP2;P2;SDS_P1;SDS_P2;PMS_P1;PMS_P2;Temp;Humidity;BMP_temperature;BMP_pressure;BME280_temperature;BME280_humidity;BME280_pressure;Samples;Min_cycle;Max_cycle;Signal;HPM_P1;HPM_P2
2023/04/01 00:00:06;;;;;;;;;3.33;0.00;;;;;12.64;62.05;99831.88;5051254;28;45514;-68
2023/04/01 00:02:32;;;;;;;;;5.00;0.00;;;;;12.65;62.20;99835.38;5052410;28;45541;-68
2023/04/01 00:04:57;;;;;;;;;2.67;0.00;;;;;12.65;62.52;99852.00;5050357;28;46723;-68
2023/04/01 00:07:23;;;;;;;;;2.00;0.33;;;;;12.61;62.73;99850.34;5035206;28;45311;-69
2023/04/01 00:09:49;;;;;;;;;0.67;0.00;;;;;12.74;62.42;99877.22;5037439;28;45497;-69
2023/04/01 00:12:14;;;;;;;;;0.00;0.00;;;;;12.73;63.28;99863.22;5052218;28;45347;-67
2023/04/01 00:14:40;;;;;;;;;0.67;0.00;;;;;12.63;63.16;99838.03;5051873;28;45672;-67
2023/04/01 00:17:05;;;;;;;;;2.00;1.00;;;;;12.64;63.57;99852.88;5047509;28;45639;-67
2023/04/01 00:19:32;;;;;;;;;0.00;0.00;;;;;12.62;63.16;99859.94;5052196;28;45467;-67
2023/04/01 00:21:58;;;;;;;;;0.67;0.00;;;;;12.62;62.95;99862.56;5052503;28;45418;-67
2023/04/01 00:24:23;;;;;;;;;0.00;0.00;;;;;12.69;63.44;99863.31;5035811;28;45824;-68
2023/04/01 00:26:49;;;;;;;;;1.33;0.00;;;;;12.60;63.55;99852.97;5034336;28;46420;-67
2023/04/01 00:29:14;;;;;;;;;1.00;0.00;;;;;12.69;63.54;99872.06;5036611;28;45588;-68
2023/04/01 00:31:40;;;;;;;;;0.00;0.00;;;;;12.61;63.27;99858.22;5052536;28;45453;-67
2023/04/01 00:34:06;;;;;;;;;1.67;0.00;;;;;12.65;63.61;99877.44;5055018;28;45497;-69
2023/04/01 00:36:31;;;;;;;;;0.00;0.00;;;;;12.65;63.58;99877.44;5054342;28;45524;-68
2023/04/01 00:38:58;;;;;;;;;0.33;0.33;;;;;12.64;63.84;99873.03;5053443;28;45441;-67
2023/04/01 00:41:26;;;;;;;;;0.00;0.00;;;;;12.67;63.81;99876.50;5038858;28;45516;-68
2023/04/01 00:43:52;;;;;;;;;0.67;0.00;;;;;12.72;63.27;99877.25;5057609;28;46312;-67
2023/04/01 00:46:19;;;;;;;;;0.00;0.00;;;;;12.65;63.49;99865.16;5057809;28;45394;-68
2023/04/01 00:48:51;;;;;;;;;0.00;0.00;;;;;12.72;63.91;99873.78;5057875;28;45485;-69
2023/04/01 00:51:44;;;;;;;;;0.33;0.00;;;;;12.71;63.43;99875.50;5056236;28;45897;-67
2023/04/01 00:54:11;;;;;;;;;0.00;0.00;;;;;12.67;63.72;99871.25;5040421;28;46742;-68
2023/04/01 00:56:44;;;;;;;;;0.00;0.00;;;;;12.68;63.13;99866.84;5043734;28;45566;-69
2023/04/01 00:59:32;;;;;;;;;0.00;0.00;;;;;12.66;63.41;99861.59;5033104;28;45710;-67
2023/04/01 01:02:00;;;;;;;;;0.67;0.00;;;;;12.59;63.59;99851.25;5037987;28;45436;-67
2023/04/01 01:04:28;;;;;;;;;1.00;0.00;;;;;12.64;63.60;99857.28;5039154;28;45664;-68
2023/04/01 01:07:20;;;;;;;;;0.67;0.00;;;;;12.65;63.75;99870.41;5031147;28;45665;-68
2023/04/01 01:09:55;;;;;;;;;0.00;0.00;;;;;12.58;63.88;99862.69;5033000;28;45734;-68
2023/04/01 01:12:30;;;;;;;;;0.00;0.00;;;;;12.55;64.05;99857.47;5035745;28;45478;-70
2023/04/01 01:15:22;;;;;;;;;2.00;0.00;;;;;12.65;64.62;99866.91;5019053;28;47094;-69
2023/04/01 01:18:18;;;;;;;;;0.00;0.00;;;;;12.62;64.85;99866.94;5013092;28;45450;-69
2023/04/01 01:20:55;;;;;;;;;0.67;0.33;;;;;12.64;64.33;99873.03;5017904;28;45828;-68
2023/04/01 01:23:27;;;;;;;;;2.00;0.00;;;;;12.64;64.30;99868.66;5048542;28;45525;-66
2023/04/01 01:25:58;;;;;;;;;2.00;0.00;;;;;12.61;64.75;99855.59;5043081;28;46123;-67
2023/04/01 01:28:44;;;;;;;;;0.67;0.00;;;;;12.60;64.50;99860.88;5055253;28;45882;-67
2023/04/01 01:31:22;;;;;;;;;0.33;0.00;;;;;12.62;64.13;99862.56;5036581;28;45658;-69
2023/04/01 01:34:06;;;;;;;;;2.00;0.00;;;;;12.61;63.94;99867.88;5055962;28;45649;-67
2023/04/01 01:36:36;;;;;;;;;0.00;0.00;;;;;12.59;63.90;99867.88;5055540;28;46120;-66
2023/04/01 01:39:07;;;;;;;;;2.00;0.00;;;;;12.59;64.37;99869.66;5054760;28;45772;-68
2023/04/01 01:41:37;;;;;;;;;2.00;1.00;;;;;12.57;63.98;99860.94;5055664;28;45405;-69
2023/04/01 01:44:06;;;;;;;;;2.00;0.00;;;;;12.59;64.22;99870.50;5038139;28;45805;-69
2023/04/01 01:46:33;;;;;;;;;0.67;0.00;;;;;12.48;64.66;99862.88;5037324;28;47337;-67
2023/04/01 01:49:00;;;;;;;;;3.00;0.67;;;;;12.51;65.19;99869.81;5056305;28;45573;-66
2023/04/01 01:51:27;;;;;;;;;1.00;0.00;;;;;12.55;65.12;99870.59;5056966;28;45434;-67
2023/04/01 01:53:53;;;;;;;;;0.00;0.00;;;;;12.51;65.72;99873.28;5060905;28;45747;-66
2023/04/01 01:56:23;;;;;;;;;1.00;0.00;;;;;12.51;66.23;99881.19;5060105;28;46275;-66
2023/04/01 01:59:01;;;;;;;;;2.00;0.00;;;;;12.49;65.86;99889.97;5060121;28;45434;-67
2023/04/01 02:01:29;;;;;;;;;0.00;0.00;;;;;12.47;65.52;99881.25;5050555;28;45671;-67
2023/04/01 02:03:57;;;;;;;;;4.00;0.00;;;;;12.52;65.61;99890.78;5056406;28;45615;-66
2023/04/01 02:06:28;;;;;;;;;0.00;0.00;;;;;12.43;65.61;99876.97;5039257;28;48424;-66
2023/04/01 02:09:01;;;;;;;;;1.00;0.00;;;;;12.45;65.87;99886.53;5038370;28;45321;-68
2023/04/01 02:11:46;;;;;;;;;1.33;0.33;;;;;12.45;65.90;99886.53;5032180;28;45382;-67
2023/04/01 02:14:25;;;;;;;;;0.00;0.00;;;;;12.38;65.65;99884.06;5026915;28;45450;-67
2023/04/01 02:17:22;;;;;;;;;3.00;0.00;;;;;12.39;66.22;99893.69;5020320;28;46623;-68
2023/04/01 02:19:52;;;;;;;;;0.00;0.00;;;;;12.35;66.37;99869.22;5038734;28;45386;-70
2023/04/01 02:22:24;;;;;;;;;0.00;0.00;;;;;12.43;65.89;99884.84;5056321;28;45729;-69
2023/04/01 02:24:54;;;;;;;;;0.00;0.00;;;;;12.41;66.03;99879.63;5041532;28;45565;-68
2023/04/01 02:27:21;;;;;;;;;0.00;0.00;;;;;12.37;65.92;99879.72;5056687;28;45735;-68
2023/04/01 02:29:46;;;;;;;;;1.00;1.00;;;;;12.36;65.22;99872.72;5055307;28;45413;-67
2023/04/01 02:32:14;;;;;;;;;2.00;0.00;;;;;12.48;64.91;99885.59;5053188;28;45425;-66
2023/04/01 02:34:40;;;;;;;;;0.00;0.00;;;;;12.43;65.10;99885.72;5037801;28;45897;-68
2023/04/01 02:37:06;;;;;;;;;1.00;0.00;;;;;12.42;65.20;99875.25;5040473;28;45835;-68
2023/04/01 02:39:32;;;;;;;;;0.67;0.67;;;;;12.45;64.32;99877.81;5054971;28;45320;-67
2023/04/01 02:41:57;;;;;;;;;1.00;1.00;;;;;12.34;64.10;99877.13;5055139;28;45950;-67
2023/04/01 02:44:23;;;;;;;;;1.00;1.00;;;;;12.36;64.28;99872.72;5055157;28;45406;-66
2023/04/01 02:46:48;;;;;;;;;1.00;0.00;;;;;12.47;63.99;99881.25;5055150;28;45963;-68
2023/04/01 02:49:14;;;;;;;;;0.00;0.00;;;;;12.37;63.40;99863.97;5055261;28;45462;-67
2023/04/01 02:51:39;;;;;;;;;0.33;0.33;;;;;12.45;63.29;99883.06;5056888;28;45357;-67
2023/04/01 02:54:05;;;;;;;;;0.00;0.00;;;;;12.48;63.25;99893.47;5056573;28;45468;-67
2023/04/01 02:56:31;;;;;;;;;0.00;0.00;;;;;12.42;63.08;99883.13;5055079;28;46457;-66
2023/04/01 02:58:56;;;;;;;;;1.33;0.00;;;;;12.52;63.55;99895.16;5037030;28;45445;-67
2023/04/01 03:01:22;;;;;;;;;1.00;0.33;;;;;12.49;62.84;99903.13;5054992;28;45655;-68
2023/04/01 03:03:47;;;;;;;;;0.67;0.00;;;;;12.48;62.64;99904.88;5058495;28;45437;-69
2023/04/01 03:06:14;;;;;;;;;1.00;0.33;;;;;12.52;62.99;99917.03;5054211;28;46249;-66
2023/04/01 03:08:40;;;;;;;;;3.00;0.00;;;;;12.42;62.97;99893.63;5056703;28;45298;-68
2023/04/01 03:11:06;;;;;;;;;0.00;0.00;;;;;12.45;63.03;99914.56;5044648;28;45400;-69
2023/04/01 03:13:32;;;;;;;;;0.00;0.00;;;;;12.43;62.49;99905.84;5055526;28;45494;-67
2023/04/01 03:15:58;;;;;;;;;0.00;0.00;;;;;12.44;62.56;99916.34;5054255;28;45516;-68
2023/04/01 03:18:23;;;;;;;;;1.00;0.00;;;;;12.40;62.88;99903.28;5054741;28;45498;-69
2023/04/01 03:20:49;;;;;;;;;2.00;0.00;;;;;12.50;62.59;99924.09;5056115;28;45282;-68
2023/04/01 03:23:17;;;;;;;;;0.33;0.00;;;;;12.54;63.11;99924.91;5056692;28;45560;-68
2023/04/01 03:25:42;;;;;;;;;1.00;0.00;;;;;12.50;62.99;99923.22;5036012;28;45533;-68
2023/04/01 03:28:08;;;;;;;;;1.00;0.00;;;;;12.48;62.73;99925.00;5054039;28;45703;-68
2023/04/01 03:30:34;;;;;;;;;1.00;0.67;;;;;12.48;62.91;99931.16;5036282;28;45418;-67
2023/04/01 03:33:00;;;;;;;;;0.00;0.00;;;;;12.41;63.33;99921.66;5054666;28;45678;-66
2023/04/01 03:35:26;;;;;;;;;2.00;0.00;;;;;12.37;63.51;99913.84;5036601;28;47992;-67
2023/04/01 03:37:53;;;;;;;;;0.00;0.00;;;;;12.37;63.34;99913.84;5055997;28;45466;-68
2023/04/01 03:40:18;;;;;;;;;0.33;0.00;;;;;12.43;63.66;99939.97;5054127;28;45409;-67
2023/04/01 03:42:44;;;;;;;;;1.00;0.00;;;;;12.44;64.02;99936.50;5052908;28;45456;-67
2023/04/01 03:45:12;;;;;;;;;0.00;0.00;;;;;12.42;64.02;99931.25;5053127;28;45556;-66
2023/04/01 03:47:39;;;;;;;;;0.00;0.00;;;;;12.36;64.34;99925.25;5053891;28;45477;-67
2023/04/01 03:50:06;;;;;;;;;0.33;0.00;;;;;12.39;63.90;99922.56;5055528;28;45732;-67
2023/04/01 03:52:33;;;;;;;;;1.00;0.00;;;;;12.40;63.63;99945.31;5058849;28;45389;-67
2023/04/01 03:54:58;;;;;;;;;1.00;1.00;;;;;12.35;63.42;99934.03;5055543;28;45361;-67
2023/04/01 03:57:24;;;;;;;;;0.00;0.00;;;;;12.37;62.96;99930.47;5054014;28;45907;-67
2023/04/01 03:59:49;;;;;;;;;2.67;0.00;;;;;12.42;63.04;99943.53;5057900;28;45449;-67
2023/04/01 04:02:15;;;;;;;;;2.67;0.00;;;;;12.39;62.66;99930.47;5058257;28;45477;-68
2023/04/01 04:04:40;;;;;;;;;2.00;0.00;;;;;12.41;62.75;99941.78;5056129;28;45486;-68
2023/04/01 04:07:07;;;;;;;;;3.00;1.00;;;;;12.40;62.58;99947.94;5053831;28;45516;-68
2023/04/01 04:09:33;;;;;;;;;0.00;0.00;;;;;12.41;62.98;99944.41;5050086;28;45896;-65
2023/04/01 04:11:59;;;;;;;;;1.33;0.00;;;;;12.45;62.48;99932.94;5044496;28;45551;-67
2023/04/01 04:14:25;;;;;;;;;0.00;0.00;;;;;12.20;62.43;99914.16;5053766;28;45544;-68
2023/04/01 04:16:50;;;;;;;;;0.00;0.00;;;;;12.33;62.77;99928.78;5053938;28;45385;-67
2023/04/01 04:19:16;;;;;;;;;1.33;0.00;;;;;12.22;63.00;99918.50;5035185;28;45540;-67
2023/04/01 04:21:42;;;;;;;;;0.00;0.00;;;;;12.39;62.95;99954.09;5054110;28;45985;-68
2023/04/01 04:24:08;;;;;;;;;2.00;0.00;;;;;12.41;63.17;99957.53;5029216;28;46686;-68
2023/04/01 04:26:33;;;;;;;;;1.00;1.00;;;;;12.40;63.04;99966.31;5053935;28;45489;-67
2023/04/01 04:28:59;;;;;;;;;0.00;0.00;;;;;12.44;62.70;99954.88;5054148;28;45470;-66
2023/04/01 04:31:25;;;;;;;;;3.00;0.00;;;;;12.44;63.06;99958.34;5053868;28;45544;-66
2023/04/01 04:33:51;;;;;;;;;2.67;0.00;;;;;12.40;63.11;99961.91;5053578;28;45786;-68
2023/04/01 04:36:18;;;;;;;;;0.00;0.00;;;;;12.35;62.95;99950.63;5053672;28;45552;-68
2023/04/01 04:38:43;;;;;;;;;2.67;0.00;;;;;12.26;62.77;99945.53;5053535;28;45788;-68
2023/04/01 04:41:19;;;;;;;;;1.00;0.00;;;;;12.41;62.62;99968.03;5042013;28;45296;-67
2023/04/01 04:43:53;;;;;;;;;3.00;0.33;;;;;12.43;62.90;99977.66;5055993;28;46662;-67
2023/04/01 04:46:19;;;;;;;;;0.00;0.00;;;;;12.43;62.32;99969.75;5055818;28;45347;-67
2023/04/01 04:48:45;;;;;;;;;0.00;0.00;;;;;12.41;62.55;99970.66;5039390;28;45391;-70
2023/04/01 04:51:18;;;;;;;;;2.00;1.00;;;;;12.50;62.41;99970.50;5037922;28;45405;-68
2023/04/01 04:53:45;;;;;;;;;1.00;0.00;;;;;12.48;61.81;99970.53;5056741;28;46566;-68
2023/04/01 04:56:11;;;;;;;;;0.00;0.00;;;;;12.48;62.40;99974.91;5033099;28;45316;-69
2023/04/01 04:58:38;;;;;;;;;2.00;0.00;;;;;12.38;61.84;99954.97;5047581;28;45905;-68
2023/04/01 05:01:12;;;;;;;;;0.00;0.00;;;;;12.49;61.86;99985.41;5056712;28;45506;-67
2023/04/01 05:03:37;;;;;;;;;0.00;0.00;;;;;12.48;61.59;99973.16;5057343;28;46415;-69
2023/04/01 05:06:04;;;;;;;;;1.00;0.67;;;;;12.43;61.68;99964.50;5054911;28;45891;-68
2023/04/01 05:08:30;;;;;;;;;1.00;1.00;;;;;12.44;61.59;99989.88;5035545;28;45506;-67
2023/04/01 05:10:56;;;;;;;;;2.00;1.00;;;;;12.49;61.33;99998.53;5035036;28;45549;-68
2023/04/01 05:13:22;;;;;;;;;1.00;1.00;;;;;12.51;61.71;99991.50;5059339;28;45658;-69
2023/04/01 05:15:47;;;;;;;;;3.00;0.00;;;;;12.42;61.23;99981.16;5045288;28;45545;-69
2023/04/01 05:18:13;;;;;;;;;1.00;1.00;;;;;12.45;61.25;99991.59;5059233;28;45367;-68
2023/04/01 05:20:39;;;;;;;;;3.00;1.00;;;;;12.41;61.31;99991.66;5043891;28;45329;-67
2023/04/01 05:23:04;;;;;;;;;0.67;0.00;;;;;12.47;61.25;99996.81;5055156;28;46504;-70
2023/04/01 05:25:30;;;;;;;;;1.67;0.00;;;;;12.42;61.46;100006.56;5031833;28;45575;-68
2023/04/01 05:27:55;;;;;;;;;1.00;1.00;;;;;12.45;61.53;99999.47;5044951;28;45726;-70
2023/04/01 05:30:21;;;;;;;;;1.00;0.00;;;;;12.44;61.81;100010.03;5051155;28;45425;-69
2023/04/01 05:32:48;;;;;;;;;0.33;0.00;;;;;12.38;61.56;99989.09;5043183;28;46143;-67
2023/04/01 05:35:14;;;;;;;;;1.00;0.00;;;;;12.44;61.64;100010.88;5036500;28;45475;-67
2023/04/01 05:37:39;;;;;;;;;1.00;0.00;;;;;12.44;61.67;99999.50;5037551;28;45740;-67
2023/04/01 05:40:06;;;;;;;;;0.00;0.00;;;;;12.47;61.23;100007.34;5036927;28;45351;-69
2023/04/01 05:42:31;;;;;;;;;1.67;0.00;;;;;12.53;61.00;100009.88;5032886;28;46475;-68
2023/04/01 05:44:57;;;;;;;;;0.33;0.00;;;;;12.39;61.24;100009.25;5057192;28;45522;-69
2023/04/01 05:47:22;;;;;;;;;0.00;0.00;;;;;12.45;61.46;100011.75;5022873;28;45498;-69
2023/04/01 05:49:48;;;;;;;;;1.00;0.00;;;;;12.34;61.59;99992.66;5044856;28;45420;-69
2023/04/01 05:52:14;;;;;;;;;0.00;0.00;;;;;12.42;61.76;100017.06;5054017;28;45451;-69
2023/04/01 05:54:40;;;;;;;;;2.00;0.00;;;;;12.38;61.17;100010.13;5046472;28;45728;-70
2023/04/01 05:57:06;;;;;;;;;0.00;0.00;;;;;12.37;61.29;100011.88;5035773;28;45467;-68
2023/04/01 05:59:31;;;;;;;;;0.00;0.00;;;;;12.36;61.05;100019.78;5038381;28;45583;-69
2023/04/01 06:01:57;;;;;;;;;0.00;0.00;;;;;12.34;61.14;100018.94;5051401;28;46521;-70
2023/04/01 06:04:25;;;;;;;;;1.00;0.00;;;;;12.40;61.31;100042.47;5054568;28;44769;-68
2023/04/01 06:06:51;;;;;;;;;0.00;0.00;;;;;12.33;61.17;100031.19;5044288;28;45392;-69
2023/04/01 06:09:23;;;;;;;;;1.33;1.00;;;;;12.30;61.50;100034.75;5042855;28;46074;-67
2023/04/01 06:12:36;;;;;;;;;0.33;0.00;;;;;12.32;61.39;100036.50;5035310;28;46745;-69
2023/04/01 06:15:20;;;;;;;;;0.00;0.00;;;;;12.38;61.42;100044.25;5041998;28;45436;-69
2023/04/01 06:18:23;;;;;;;;;0.67;0.00;;;;;12.38;60.87;100052.13;5051518;28;45498;-69
2023/04/01 06:21:07;;;;;;;;;1.00;0.00;;;;;12.41;61.40;100055.59;5049816;28;45804;-70
2023/04/01 06:24:12;;;;;;;;;3.00;1.00;;;;;12.42;60.63;100059.94;5045724;28;46886;-70
2023/04/01 06:27:04;;;;;;;;;0.00;0.00;;;;;12.33;60.59;100028.56;5046725;28;45780;-67
2023/04/01 06:30:00;;;;;;;;;0.00;0.00;;;;;12.45;60.15;100062.50;5051661;28;45481;-68
2023/04/01 06:32:49;;;;;;;;;0.67;0.67;;;;;12.48;60.45;100061.59;5046502;28;45500;-67
2023/04/01 06:35:46;;;;;;;;;1.33;0.00;;;;;12.49;59.99;100068.59;5040681;28;45529;-69
2023/04/01 06:38:20;;;;;;;;;2.00;0.67;;;;;12.49;59.92;100061.56;5044009;28;45629;-71
2023/04/01 06:40:53;;;;;;;;;0.00;0.00;;;;;12.41;59.38;100055.59;5041456;28;45733;-66
2023/04/01 06:43:44;;;;;;;;;0.00;0.00;;;;;12.49;59.53;100071.22;5046220;28;45371;-68
2023/04/01 06:46:29;;;;;;;;;0.00;0.00;;;;;12.54;59.61;100079.88;5017129;28;45554;-67
2023/04/01 06:49:03;;;;;;;;;2.00;0.00;;;;;12.56;59.40;100080.72;5046983;28;45345;-67
2023/04/01 06:51:53;;;;;;;;;0.00;0.00;;;;;12.54;59.35;100072.00;5027964;28;45516;-68
2023/04/01 06:54:32;;;;;;;;;3.33;0.00;;;;;12.56;59.16;100069.34;5040272;28;46009;-68
2023/04/01 06:57:14;;;;;;;;;1.67;0.00;;;;;12.56;59.57;100072.00;5035238;28;46426;-68
2023/04/01 06:59:41;;;;;;;;;0.00;0.00;;;;;12.59;59.32;100074.56;5025686;28;45487;-68
2023/04/01 07:02:09;;;;;;;;;1.00;0.00;;;;;12.65;59.11;100083.19;5039637;28;45458;-69
2023/04/01 07:04:39;;;;;;;;;0.00;0.00;;;;;12.70;59.05;100088.38;5022779;28;45606;-68
2023/04/01 07:07:15;;;;;;;;;0.00;0.00;;;;;12.69;59.08;100078.75;5016281;28;45901;-70
2023/04/01 07:09:48;;;;;;;;;2.00;0.00;;;;;12.86;58.53;100083.69;5026827;28;45790;-67
2023/04/01 07:12:33;;;;;;;;;0.00;0.00;;;;;13.03;58.39;100094.81;5054907;28;45483;-68
2023/04/01 07:15:11;;;;;;;;;1.00;0.00;;;;;13.10;57.79;100090.31;5042310;28;45481;-68
2023/04/01 07:17:42;;;;;;;;;0.00;0.00;;;;;13.18;57.54;100083.13;5054415;28;45398;-69
2023/04/01 07:20:23;;;;;;;;;0.67;0.00;;;;;13.19;57.64;100099.75;5053510;28;45817;-69
2023/04/01 07:22:51;;;;;;;;;2.33;0.00;;;;;13.20;57.35;100093.63;5056243;28;45493;-69
2023/04/01 07:25:27;;;;;;;;;2.00;0.00;;;;;13.20;57.06;100098.88;5059127;28;45468;-69
2023/04/01 07:28:00;;;;;;;;;0.00;0.00;;;;;13.17;57.32;100084.03;5058124;28;45565;-69
2023/04/01 07:30:33;;;;;;;;;4.00;0.00;;;;;13.37;56.59;100102.06;5054929;28;45699;-69
2023/04/01 07:33:28;;;;;;;;;0.00;0.00;;;;;13.38;55.94;100101.16;5036590;28;45442;-68
2023/04/01 07:36:16;;;;;;;;;0.67;0.00;;;;;13.58;56.16;100101.66;4998997;28;45663;-67
2023/04/01 07:39:21;;;;;;;;;0.00;0.00;;;;;13.70;55.33;100097.91;5044411;28;46562;-68
2023/04/01 07:41:55;;;;;;;;;0.00;0.00;;;;;13.68;55.27;100090.94;5056174;28;45638;-70
2023/04/01 07:44:48;;;;;;;;;0.33;0.00;;;;;13.81;54.70;100095.06;5042923;28;45501;-70
2023/04/01 07:47:21;;;;;;;;;0.00;0.00;;;;;13.78;54.34;100092.47;5043519;28;45498;-70
2023/04/01 07:50:22;;;;;;;;;1.00;1.00;;;;;13.83;55.11;100106.38;5030060;28;46440;-70
2023/04/01 07:53:06;;;;;;;;;0.00;0.00;;;;;13.93;54.59;100105.31;4995933;28;45346;-69
2023/04/01 07:55:44;;;;;;;;;3.33;0.00;;;;;13.98;54.63;100106.06;5046001;28;45541;-67
2023/04/01 07:58:31;;;;;;;;;0.00;0.00;;;;;14.03;54.44;100126.19;5034353;28;45398;-70
2023/04/01 08:01:10;;;;;;;;;2.00;0.33;;;;;14.11;53.98;100121.59;5037701;28;46007;-68
2023/04/01 08:03:54;;;;;;;;;0.67;0.00;;;;;14.09;54.30;100107.59;5037480;28;45435;-69
2023/04/01 08:06:45;;;;;;;;;2.00;0.00;;;;;14.12;54.05;100091.75;5032666;28;45415;-67
2023/04/01 08:09:26;;;;;;;;;0.00;0.00;;;;;14.40;53.46;100113.00;5033383;28;45761;-69
2023/04/01 08:12:09;;;;;;;;;2.00;0.00;;;;;14.49;52.73;100107.53;5024280;28;45559;-68
2023/04/01 08:15:01;;;;;;;;;1.00;0.00;;;;;14.71;52.19;100123.72;5049362;28;45499;-70
2023/04/01 08:17:39;;;;;;;;;0.00;0.00;;;;;14.80;51.74;100117.34;5036871;28;45379;-71
2023/04/01 08:20:26;;;;;;;;;0.00;0.00;;;;;14.68;51.66;100107.13;5033364;28;45643;-69
2023/04/01 08:23:12;;;;;;;;;4.00;0.67;;;;;14.75;51.41;100132.41;5038877;28;45356;-68
2023/04/01 08:25:44;;;;;;;;;0.00;0.00;;;;;14.75;51.79;100138.53;5018868;28;45519;-69
2023/04/01 08:28:14;;;;;;;;;1.00;0.00;;;;;14.51;51.67;100099.59;5037835;28;45434;-68
2023/04/01 08:30:47;;;;;;;;;0.00;0.00;;;;;14.68;51.20;100118.50;5038059;28;45526;-68
2023/04/01 08:33:23;;;;;;;;;3.33;0.00;;;;;14.72;51.52;100129.88;5019332;28;47128;-69
2023/04/01 08:35:58;;;;;;;;;1.33;0.00;;;;;14.76;51.06;100129.75;5016005;28;45317;-69
2023/04/01 08:38:36;;;;;;;;;0.00;0.00;;;;;14.75;51.38;100127.16;5033379;28;45424;-70
2023/04/01 08:41:34;;;;;;;;;1.67;0.00;;;;;14.88;50.64;100146.16;5033603;28;45435;-70
2023/04/01 08:44:16;;;;;;;;;0.00;0.00;;;;;14.89;50.29;100121.53;5016422;28;47253;-69
2023/04/01 08:47:05;;;;;;;;;0.67;0.67;;;;;14.92;49.82;100119.66;5033398;28;45423;-68
2023/04/01 08:50:02;;;;;;;;;0.00;0.00;;;;;14.97;49.93;100145.91;5036480;28;45525;-68
2023/04/01 08:52:46;;;;;;;;;0.00;0.00;;;;;14.99;49.98;100138.84;5016308;28;45312;-69
2023/04/01 08:55:22;;;;;;;;;2.33;1.00;;;;;15.06;49.49;100121.94;5031508;28;47895;-70
2023/04/01 08:58:10;;;;;;;;;1.00;0.00;;;;;15.16;49.42;100139.28;5015698;28;45523;-69
2023/04/01 09:00:47;;;;;;;;;0.67;0.67;;;;;15.29;49.08;100147.72;5032988;28;45577;-70
2023/04/01 09:03:16;;;;;;;;;1.67;0.00;;;;;15.26;49.45;100147.81;5029383;28;45568;-68
2023/04/01 09:05:48;;;;;;;;;0.33;0.00;;;;;15.21;49.34;100144.41;5015065;28;45534;-68
2023/04/01 09:08:36;;;;;;;;;0.67;0.33;;;;;15.24;49.95;100147.84;5014802;28;45536;-68
2023/04/01 09:11:10;;;;;;;;;1.67;0.67;;;;;15.22;49.70;100135.59;5035506;28;45428;-72
2023/04/01 09:14:12;;;;;;;;;0.00;0.00;;;;;15.36;49.45;100143.16;5051892;28;45496;-69
2023/04/01 09:17:00;;;;;;;;;1.00;0.00;;;;;15.47;49.42;100128.75;5035242;28;47745;-68
2023/04/01 09:19:52;;;;;;;;;0.00;0.00;;;;;15.73;51.47;100136.88;5034890;28;45444;-69
2023/04/01 09:22:36;;;;;;;;;1.00;1.00;;;;;15.97;50.93;100137.91;5034593;28;45359;-70
2023/04/01 09:25:23;;;;;;;;;0.67;0.67;;;;;15.90;50.15;100130.19;5035491;28;45588;-69
2023/04/01 09:28:08;;;;;;;;;2.67;1.00;;;;;15.81;49.68;100134.88;5038988;28;47812;-70
2023/04/01 09:31:05;;;;;;;;;0.00;0.00;;;;;15.78;49.07;100142.88;5036121;28;45616;-70
2023/04/01 09:33:54;;;;;;;;;0.00;0.00;;;;;15.83;48.70;100139.22;5052764;28;45473;-69
2023/04/01 09:36:50;;;;;;;;;0.00;0.00;;;;;15.77;48.44;100149.06;5034947;28;46191;-69
2023/04/01 09:39:37;;;;;;;;;2.00;0.00;;;;;15.61;49.14;100151.25;5052817;28;46141;-69
2023/04/01 09:42:09;;;;;;;;;0.00;0.00;;;;;15.60;48.93;100145.09;5057770;28;45369;-69
2023/04/01 09:44:40;;;;;;;;;0.67;0.67;;;;;15.78;48.88;100153.44;5059292;28;45508;-68
2023/04/01 09:47:35;;;;;;;;;1.00;0.00;;;;;15.99;49.76;100150.19;5042523;28;45351;-69
2023/04/01 09:50:17;;;;;;;;;0.00;0.00;;;;;16.09;48.52;100138.44;5028228;28;46545;-68
2023/04/01 09:53:14;;;;;;;;;1.00;0.00;;;;;16.27;48.37;100147.56;5037884;28;45715;-68
2023/04/01 09:55:52;;;;;;;;;0.67;0.00;;;;;16.14;47.52;100164.72;5056717;28;45402;-69
2023/04/01 09:58:33;;;;;;;;;2.00;0.67;;;;;16.12;48.64;100169.19;5056479;28;45608;-68
2023/04/01 10:01:43;;;;;;;;;2.67;0.00;;;;;16.07;47.08;100179.03;5040756;28;45893;-69
2023/04/01 10:04:42;;;;;;;;;1.00;0.00;;;;;16.03;46.43;100169.44;5037210;28;45625;-68
2023/04/01 10:07:35;;;;;;;;;1.67;0.00;;;;;16.00;46.08;100175.69;5058640;28;45339;-71
2023/04/01 10:10:25;;;;;;;;;0.00;0.00;;;;;15.75;46.03;100149.13;5048815;28;45492;-70
2023/04/01 10:13:28;;;;;;;;;1.00;0.00;;;;;15.92;45.59;100179.44;5052606;28;46170;-70
2023/04/01 10:16:30;;;;;;;;;0.00;0.00;;;;;15.83;45.42;100149.78;5054043;28;45466;-69
2023/04/01 10:19:24;;;;;;;;;1.67;1.00;;;;;16.11;45.20;100170.97;5055811;28;45432;-69
2023/04/01 10:22:15;;;;;;;;;0.00;0.00;;;;;16.37;44.41;100176.34;5045385;28;45573;-70
2023/04/01 10:25:02;;;;;;;;;0.00;0.00;;;;;16.57;43.47;100181.91;5052121;28;45582;-70
2023/04/01 10:27:38;;;;;;;;;0.00;0.00;;;;;16.57;43.40;100171.31;5054554;28;45736;-70
2023/04/01 10:30:16;;;;;;;;;2.00;0.00;;;;;16.61;43.24;100169.44;5037105;28;45655;-68
2023/04/01 10:32:47;;;;;;;;;1.00;0.00;;;;;16.60;43.09;100168.56;5057995;28;45272;-70
2023/04/01 10:35:44;;;;;;;;;2.00;0.00;;;;;16.62;43.32;100157.97;5059801;28;45449;-70
2023/04/01 10:38:40;;;;;;;;;0.00;0.00;;;;;16.82;43.21;100150.25;5036051;28;45754;-69
2023/04/01 10:41:43;;;;;;;;;0.33;0.00;;;;;16.93;42.70;100164.00;5050724;27;45418;-69
2023/04/01 10:44:28;;;;;;;;;2.00;1.00;;;;;16.98;42.14;100155.91;5042495;28;45561;-70
2023/04/01 10:47:08;;;;;;;;;2.00;1.00;;;;;17.06;42.25;100161.81;5039146;28;46947;-69
2023/04/01 10:50:06;;;;;;;;;1.33;1.33;;;;;17.27;41.89;100154.03;5036416;28;45271;-70
2023/04/01 10:52:54;;;;;;;;;1.00;1.00;;;;;17.34;41.72;100158.19;5036431;28;45921;-70
2023/04/01 10:55:29;;;;;;;;;3.67;1.00;;;;;17.36;41.08;100154.56;5034268;28;45910;-67
2023/04/01 10:58:08;;;;;;;;;1.00;1.00;;;;;17.32;41.03;100141.50;5055721;28;45641;-69
2023/04/01 11:01:15;;;;;;;;;0.67;0.00;;;;;17.19;40.73;100166.69;5050746;28;45521;-69
2023/04/01 11:04:18;;;;;;;;;1.67;1.00;;;;;17.14;40.82;100151.81;5004386;28;46461;-68
2023/04/01 11:07:21;;;;;;;;;2.00;0.00;;;;;17.51;40.23;100153.19;5051747;28;45435;-69
2023/04/01 11:10:08;;;;;;;;;1.00;1.00;;;;;17.84;39.37;100159.97;5030970;28;46653;-69
2023/04/01 11:12:58;;;;;;;;;0.00;0.00;;;;;17.87;39.17;100149.25;5037147;28;45549;-68
2023/04/01 11:15:33;;;;;;;;;0.33;0.00;;;;;17.95;38.93;100139.25;5056009;28;45820;-69
2023/04/01 11:18:31;;;;;;;;;0.00;0.00;;;;;17.98;38.21;100136.47;5035258;28;45912;-68
2023/04/01 11:21:12;;;;;;;;;1.00;1.00;;;;;18.05;38.51;100123.84;5037007;28;46956;-68
2023/04/01 11:23:44;;;;;;;;;8.00;1.67;;;;;18.33;38.57;100129.81;5055619;28;45451;-68
2023/04/01 11:26:22;;;;;;;;;0.00;0.00;;;;;18.39;38.51;100126.06;5055170;28;45616;-69
2023/04/01 11:29:19;;;;;;;;;3.67;0.33;;;;;18.48;38.53;100127.47;5034108;28;46093;-68
2023/04/01 11:32:09;;;;;;;;;1.00;1.00;;;;;18.66;37.88;100118.75;5055183;28;45796;-70
2023/04/01 11:34:57;;;;;;;;;1.00;0.00;;;;;18.52;37.63;100119.31;5031744;28;45564;-69
2023/04/01 11:37:45;;;;;;;;;3.00;0.00;;;;;18.38;38.37;100135.78;5034021;28;45578;-69
2023/04/01 11:40:41;;;;;;;;;1.00;0.00;;;;;18.27;38.60;100132.72;5035705;28;45614;-68
2023/04/01 11:43:38;;;;;;;;;0.67;0.33;;;;;18.21;38.55;100141.75;5028605;28;45795;-68
2023/04/01 11:46:19;;;;;;;;;0.33;0.00;;;;;18.00;38.89;100145.22;5049044;28;45809;-70
2023/04/01 11:49:30;;;;;;;;;2.33;0.00;;;;;17.70;39.50;100150.75;5054743;28;45923;-69
2023/04/01 11:52:33;;;;;;;;;1.00;1.00;;;;;17.45;39.85;100156.03;5051842;28;45971;-68
2023/04/01 11:55:13;;;;;;;;;2.00;1.00;;;;;17.30;40.65;100161.91;5056171;28;45366;-70
2023/04/01 11:57:48;;;;;;;;;0.00;0.00;;;;;17.19;40.96;100156.09;5042338;28;45382;-68
2023/04/01 12:00:35;;;;;;;;;0.00;0.00;;;;;17.60;40.17;100151.97;5052529;28;45473;-67
2023/04/01 12:03:22;;;;;;;;;2.00;0.00;;;;;18.04;39.16;100149.50;5044925;28;45466;-68
2023/04/01 12:06:18;;;;;;;;;0.67;0.67;;;;;18.49;38.87;100159.25;5053137;28;45546;-67
2023/04/01 12:09:04;;;;;;;;;0.33;0.33;;;;;18.93;38.22;100145.97;5053912;28;45624;-67
2023/04/01 12:11:45;;;;;;;;;1.00;1.00;;;;;19.30;36.92;100140.88;5041958;28;45785;-69